Time;durP1;ratioP1;P1;durP2;ratioP2;P2;SDS_P1;SDS_P2;PMS_P1;PMS_P2;Temp;Humidity;BMP_temperature;BMP_pressure;BME280_temperature;BME280_humidity;BME280_pressure;Samples;Min_cycle;Max_cycle;Signal;HPM_P1;HPM_P2
2021/07/02 05:06:27;;;;;;;;;40.50;32.75;;;;;19.02;67.64;101432.56;5960020;23;46780;31
2021/07/02 05:08:52;;;;;;;;;39.50;35.00;;;;;19.08;67.69;101440.53;4817944;29;47391;-81
2021/07/02 05:11:17;;;;;;;;;30.00;29.75;;;;;19.10;67.83;101436.06;4790398;29;45367;-81
2021/07/02 05:13:43;;;;;;;;;32.67;31.00;;;;;19.16;67.82;101437.88;4790748;29;45344;-83
2021/07/02 05:16:09;;;;;;;;;34.00;31.75;;;;;19.21;67.36;101446.69;4790818;29;45319;-82
2021/07/02 05:18:35;;;;;;;;;36.50;32.00;;;;;19.24;67.49;101443.13;4805084;29;46123;-82
2021/07/02 05:21:02;;;;;;;;;38.50;33.25;;;;;19.28;67.50;101443.09;4807023;29;45375;-81
2021/07/02 05:23:27;;;;;;;;;34.00;33.00;;;;;19.27;67.23;101430.66;4808247;29;45228;-81
2021/07/02 05:25:53;;;;;;;;;33.25;29.75;;;;;19.33;67.32;101435.94;4808323;29;45344;-82
2021/07/02 05:28:18;;;;;;;;;35.50;32.50;;;;;19.36;67.67;101432.38;4807930;29;46144;-81
2021/07/02 05:30:44;;;;;;;;;32.50;30.75;;;;;19.39;67.51;101434.13;4808255;29;45367;-81
2021/07/02 05:33:09;;;;;;;;;35.75;32.50;;;;;19.42;67.19;101434.09;4808174;29;45865;-82
2021/07/02 05:35:34;;;;;;;;;34.25;31.75;;;;;19.44;67.62;101435.84;4809007;29;45426;-81
2021/07/02 05:38:00;;;;;;;;;38.00;32.75;;;;;19.45;67.64;101434.06;4810138;29;46188;-83
2021/07/02 05:40:25;;;;;;;;;36.25;32.25;;;;;19.52;67.55;101434.91;4807861;29;45434;-81
2021/07/02 05:42:51;;;;;;;;;37.00;33.25;;;;;19.53;67.80;101445.56;4809694;29;45333;-82
2021/07/02 05:45:16;;;;;;;;;33.50;28.75;;;;;19.57;67.48;101438.41;4810244;29;45444;-82
2021/07/02 05:47:52;;;;;;;;;38.00;31.75;;;;;19.60;67.74;101448.16;4810329;29;46043;-83
2021/07/02 05:50:19;;;;;;;;;34.00;32.00;;;;;19.61;67.56;101439.25;4807088;29;45441;-83
2021/07/02 05:52:46;;;;;;;;;30.75;29.25;;;;;19.62;67.12;101446.38;4806958;29;45291;-84
2021/07/02 05:55:13;;;;;;;;;33.00;29.00;;;;;19.65;66.40;101441.03;4808385;29;45335;-84
2021/07/02 05:57:41;;;;;;;;;37.00;30.25;;;;;19.67;66.68;101445.44;4807826;29;45624;-83
2021/07/02 06:00:09;;;;;;;;;39.75;32.50;;;;;19.69;66.83;101449.88;4807614;29;45509;-82
2021/07/02 06:02:34;;;;;;;;;35.00;32.00;;;;;19.69;66.87;101436.53;4808054;29;45347;-83
2021/07/02 06:05:00;;;;;;;;;41.00;33.25;;;;;19.73;66.44;101446.28;4808598;29;45294;-84
2021/07/02 06:10:42;;;;;;;;;38.00;30.75;;;;;19.72;66.75;101437.38;4862183;27;44812;-86
2021/07/02 06:13:07;;;;;;;;;38.00;32.50;;;;;19.72;66.00;101440.06;4879502;29;45303;-85
2021/07/02 06:15:33;;;;;;;;;40.00;33.25;;;;;19.69;66.45;101426.75;4874225;29;45445;-87
2021/07/02 06:18:05;;;;;;;;;39.50;33.25;;;;;19.76;66.52;101432.91;4869815;29;45360;-88
2021/07/02 06:20:30;;;;;;;;;40.25;34.25;;;;;19.87;66.22;101439.03;4864137;29;45333;-88
2021/07/02 06:22:56;;;;;;;;;39.50;33.50;;;;;19.89;66.25;101441.66;4863454;29;45233;-88
2021/07/02 06:25:21;;;;;;;;;40.75;35.25;;;;;19.83;66.64;101434.63;4863242;29;45518;-87
2021/07/02 06:27:46;;;;;;;;;40.25;34.50;;;;;19.88;66.49;101432.75;4863647;29;46157;-87
2021/07/02 06:30:13;;;;;;;;;47.00;36.25;;;;;19.86;66.72;101428.38;4863466;29;45362;-88
2021/07/02 06:32:38;;;;;;;;;36.75;32.00;;;;;19.89;66.61;101428.31;4862174;29;45280;-88
2021/07/02 06:35:04;;;;;;;;;38.00;32.50;;;;;19.87;66.51;101424.78;4863659;29;45224;-87
2021/07/02 06:37:30;;;;;;;;;36.00;32.25;;;;;19.94;66.86;101442.50;4863347;29;45634;-88
2021/07/02 06:39:58;;;;;;;;;42.00;33.75;;;;;19.85;66.90;101427.47;4863537;29;45505;-87
2021/07/02 06:42:24;;;;;;;;;43.50;34.25;;;;;19.93;66.99;101447.84;4863381;29;45384;-87
2021/07/02 06:44:49;;;;;;;;;44.25;33.25;;;;;19.89;67.14;101442.56;4863798;29;45384;-88
2021/07/02 06:47:15;;;;;;;;;34.50;33.00;;;;;19.87;66.84;101440.78;4862325;29;45316;-87
2021/07/02 06:49:40;;;;;;;;;41.00;34.50;;;;;19.89;67.41;101442.56;4863003;29;45330;-87
2021/07/02 06:52:07;;;;;;;;;45.25;36.00;;;;;19.87;67.53;101440.78;4863890;29;45240;-88
2021/07/02 06:54:33;;;;;;;;;39.50;33.50;;;;;19.86;67.44;101433.72;4863440;29;45510;-87
2021/07/02 06:57:04;;;;;;;;;36.25;31.75;;;;;19.86;67.12;101442.56;4860862;29;46113;-88
2021/07/02 06:59:37;;;;;;;;;43.00;37.25;;;;;19.91;66.83;101447.88;4862617;29;45331;-87
2021/07/02 07:02:03;;;;;;;;;40.75;33.50;;;;;19.87;67.16;101448.78;4861483;29;45424;-88
2021/07/02 07:04:34;;;;;;;;;42.75;34.00;;;;;19.94;67.26;101454.97;4863886;29;45288;-87
2021/07/02 07:07:00;;;;;;;;;44.75;35.50;;;;;19.82;67.34;101434.63;4863925;29;46731;-87
2021/07/02 07:09:25;;;;;;;;;46.50;36.25;;;;;19.90;67.04;101454.13;4864096;29;45759;-88
2021/07/02 07:11:51;;;;;;;;;41.25;34.75;;;;;19.81;66.74;101436.41;4865821;29;45277;-88
2021/07/02 07:14:16;;;;;;;;;41.50;36.00;;;;;19.89;66.87;101444.34;4866111;29;45367;-87
2021/07/02 07:16:41;;;;;;;;;39.50;33.75;;;;;19.94;66.96;101442.50;4865429;29;45913;-87
2021/07/02 07:19:07;;;;;;;;;45.25;37.50;;;;;19.91;66.76;101434.53;4863787;29;45376;-88
2021/07/02 07:21:32;;;;;;;;;44.25;36.00;;;;;19.88;66.95;101432.75;4865140;29;45426;-88
2021/07/02 07:23:58;;;;;;;;;45.25;38.00;;;;;19.92;67.30;101436.31;4863939;29;45356;-88
2021/07/02 07:26:23;;;;;;;;;46.75;37.75;;;;;20.02;67.30;101456.66;4864983;29;45414;-88
2021/07/02 07:28:49;;;;;;;;;37.50;33.25;;;;;19.97;67.50;101447.81;4864894;29;45319;-88
2021/07/02 07:31:14;;;;;;;;;43.00;34.25;;;;;19.94;67.31;101442.50;4863895;29;45879;-88
2021/07/02 07:33:44;;;;;;;;;46.25;37.00;;;;;19.95;67.30;101436.25;4864167;29;45496;-88
2021/07/02 07:36:14;;;;;;;;;48.25;37.50;;;;;20.06;67.34;101451.28;4863672;29;47544;-88
2021/07/02 07:38:39;;;;;;;;;39.75;34.00;;;;;20.10;67.28;101458.38;4879118;29;45874;-88
2021/07/02 07:41:05;;;;;;;;;41.50;33.50;;;;;19.99;67.53;101438.00;4873487;29;45432;-88
2021/07/02 07:43:30;;;;;;;;;37.50;32.50;;;;;20.00;67.70;101437.09;4868959;29;45486;-88
2021/07/02 07:45:56;;;;;;;;;41.25;34.00;;;;;20.02;67.55;101440.66;4866257;29;47071;-89
2021/07/02 07:48:21;;;;;;;;;40.75;34.00;;;;;20.06;66.06;101441.50;4867476;29;45320;-88
2021/07/02 07:50:50;;;;;;;;;46.75;36.25;;;;;20.09;65.96;101445.94;4867819;29;45234;-89
2021/07/02 07:53:15;;;;;;;;;42.25;34.75;;;;;20.12;65.83;101452.13;4866927;29;45342;-89
2021/07/02 07:55:41;;;;;;;;;40.75;36.25;;;;;20.19;65.83;101462.72;4864779;29;45378;-88
2021/07/02 07:58:06;;;;;;;;;32.25;31.50;;;;;20.18;65.39;101455.66;4864784;29;45349;-88
2021/07/02 08:00:32;;;;;;;;;36.50;34.00;;;;;20.29;65.20;101466.16;4863393;29;45383;-88
2021/07/02 08:02:59;;;;;;;;;34.75;31.00;;;;;20.32;65.84;101464.38;4864716;29;45423;-88
2021/07/02 08:05:25;;;;;;;;;37.50;33.00;;;;;20.33;65.34;101454.56;4864437;29;46178;-88
2021/07/02 08:07:50;;;;;;;;;31.33;28.67;;;;;20.39;64.87;101457.16;4864467;29;45470;-88
2021/07/02 08:10:19;;;;;;;;;36.00;30.50;;;;;20.53;65.22;101477.47;4864459;29;45235;-88
2021/07/02 08:12:45;;;;;;;;;34.25;31.00;;;;;20.52;64.58;101454.34;4864695;29;45334;-88
2021/07/02 08:15:12;;;;;;;;;32.33;29.00;;;;;20.61;64.84;101462.22;4863776;29;46120;-88
2021/07/02 08:17:38;;;;;;;;;39.75;33.00;;;;;20.71;64.56;101458.53;4864570;29;45407;-88
2021/07/02 08:20:08;;;;;;;;;38.67;32.00;;;;;20.88;64.96;101461.84;4865668;29;45683;-88
2021/07/02 08:22:34;;;;;;;;;32.50;28.25;;;;;21.01;64.81;101457.25;4865036;29;45194;-88
2021/07/02 08:25:00;;;;;;;;;31.50;29.00;;;;;21.08;62.64;101464.28;4864004;29;45354;-89
2021/07/02 08:27:26;;;;;;;;;34.67;30.67;;;;;21.22;61.25;101456.03;4862894;29;45570;-88
2021/07/02 08:29:52;;;;;;;;;34.33;30.00;;;;;21.39;61.17;101471.81;4864184;29;45465;-88
2021/07/02 08:32:18;;;;;;;;;28.00;24.67;;;;;21.53;60.51;101481.44;4864193;29;45441;-88
2021/07/02 08:34:44;;;;;;;;;27.00;26.67;;;;;21.64;60.23;101463.38;4864027;29;46251;-88
2021/07/02 08:37:09;;;;;;;;;24.33;23.67;;;;;21.80;61.03;101463.13;4864034;29;45402;-88
2021/07/02 08:39:35;;;;;;;;;26.33;21.00;;;;;22.01;60.18;101454.75;4864131;29;45260;-88
2021/07/02 08:42:03;;;;;;;;;24.67;19.33;;;;;22.42;59.16;101471.75;4864271;29;45362;-88
2021/07/02 08:44:28;;;;;;;;;25.67;22.33;;;;;22.73;59.73;101456.88;4862532;29;48868;-88
2021/07/02 08:46:54;;;;;;;;;22.00;21.67;;;;;23.08;59.63;101448.03;4864038;29;45374;-88
2021/07/02 08:49:21;;;;;;;;;21.33;20.00;;;;;23.63;58.34;101458.34;4863857;29;45338;-87
2021/07/02 08:51:46;;;;;;;;;19.00;17.67;;;;;24.20;58.17;101457.69;4863989;29;45403;-87
2021/07/02 08:54:15;;;;;;;;;24.67;22.67;;;;;24.73;56.63;101457.97;4863746;29;46249;-88
2021/07/02 08:56:42;;;;;;;;;26.67;24.67;;;;;25.11;56.21;101456.88;4863882;29;45333;-88
2021/07/02 08:59:07;;;;;;;;;23.33;20.67;;;;;25.57;55.59;101454.44;4863610;29;45223;-88
2021/07/02 09:01:42;;;;;;;;;28.33;22.67;;;;;25.85;54.33;101457.97;4864188;29;45251;-89
2021/07/02 09:04:15;;;;;;;;;21.67;20.00;;;;;25.95;53.93;101456.75;4863859;29;45528;-88
2021/07/02 09:06:41;;;;;;;;;21.33;20.67;;;;;25.94;53.17;101443.31;4863954;29;45306;-88
2021/07/02 09:09:09;;;;;;;;;23.33;20.33;;;;;26.02;52.65;101438.53;4863819;29;45310;-88
2021/07/02 09:11:35;;;;;;;;;26.67;22.67;;;;;25.98;52.49;101448.53;4863828;29;45302;-88
2021/07/02 09:14:04;;;;;;;;;24.00;21.00;;;;;25.88;52.44;101449.81;4863980;29;45400;-87
2021/07/02 09:16:37;;;;;;;;;22.33;22.33;;;;;25.86;52.66;101452.56;4864546;29;45414;-87
2021/07/02 09:19:27;;;;;;;;;21.67;21.33;;;;;25.97;52.68;101448.59;4864473;29;45358;-88
2021/07/02 09:22:14;;;;;;;;;25.00;23.00;;;;;26.42;52.06;101441.56;4863702;29;45358;-89
2021/07/02 09:24:43;;;;;;;;;22.00;21.00;;;;;27.45;50.99;101433.91;4869728;29;46639;-88
2021/07/02 09:27:41;;;;;;;;;19.67;18.33;;;;;28.42;48.06;101442.28;4862843;29;45360;-88
2021/07/02 09:30:08;;;;;;;;;24.33;21.00;;;;;28.45;48.31;101442.13;4790387;29;45373;-87
2021/07/02 09:32:39;;;;;;;;;20.33;20.33;;;;;28.44;47.32;101443.97;4806227;29;45524;-89
2021/07/02 09:35:05;;;;;;;;;17.00;17.00;;;;;28.33;46.27;101427.31;4790345;29;47320;-89
2021/07/02 09:37:37;;;;;;;;;18.67;18.33;;;;;28.61;46.91;101439.56;4805499;29;45315;-88
2021/07/02 09:40:16;;;;;;;;;18.67;18.67;;;;;28.66;47.19;101436.66;4805690;29;45382;-88
2021/07/02 09:42:42;;;;;;;;;20.33;18.67;;;;;28.50;47.13;101422.97;4805923;29;45463;-88
2021/07/02 09:45:13;;;;;;;;;23.00;21.00;;;;;28.39;47.41;101436.97;4805699;29;46126;-89
2021/07/02 09:47:41;;;;;;;;;18.00;17.00;;;;;27.99;42.08;101424.38;4790955;29;45964;-88
2021/07/02 09:50:19;;;;;;;;;21.00;19.67;;;;;27.58;46.16;101414.47;4793864;29;45483;-88
2021/07/02 09:53:06;;;;;;;;;22.00;18.67;;;;;27.34;47.40;101426.25;4809098;29;45347;-88
2021/07/02 09:55:42;;;;;;;;;20.33;18.33;;;;;27.29;42.92;101422.84;4807062;29;47382;-88
2021/07/02 09:58:10;;;;;;;;;20.33;19.00;;;;;27.46;47.01;101421.25;4805715;29;45431;-87
2021/07/02 10:00:47;;;;;;;;;22.67;20.00;;;;;27.60;45.45;101428.78;4805752;29;45233;-90
2021/07/02 10:03:17;;;;;;;;;19.67;18.67;;;;;27.67;47.14;101426.69;4806137;29;45554;-87
2021/07/02 10:05:44;;;;;;;;;19.00;18.00;;;;;27.51;47.25;101420.13;4834914;29;46345;-88
2021/07/02 10:08:10;;;;;;;;;21.67;19.00;;;;;27.40;47.62;101417.00;4861622;29;45878;-87
2021/07/02 10:10:35;;;;;;;;;19.00;17.00;;;;;27.15;48.08;101407.25;4862745;29;45261;-88
2021/07/02 10:13:01;;;;;;;;;21.00;20.00;;;;;27.05;47.27;101414.84;4862432;29;45531;-88
2021/07/02 10:15:28;;;;;;;;;17.00;15.33;;;;;26.83;47.49;101426.50;4865945;29;46031;-87
2021/07/02 10:17:58;;;;;;;;;17.33;16.33;;;;;26.73;47.37;101412.53;4865778;29;46024;-87
2021/07/02 10:20:29;;;;;;;;;16.67;15.33;;;;;26.73;46.68;101414.34;4867631;29;45274;-88
2021/07/02 10:22:58;;;;;;;;;18.67;17.00;;;;;26.62;46.33;101421.03;4886461;29;45211;-88
2021/07/02 10:25:27;;;;;;;;;17.33;16.00;;;;;26.43;46.96;101421.75;4887693;29;45391;-88
2021/07/02 10:27:53;;;;;;;;;16.33;15.33;;;;;26.36;46.97;101423.78;4884032;29;45354;-89
2021/07/02 10:30:19;;;;;;;;;13.67;13.67;;;;;26.45;47.75;101419.88;4868004;29;44809;-88
2021/07/02 10:32:47;;;;;;;;;13.00;13.00;;;;;26.55;47.32;101403.34;4863953;29;45360;-89
2021/07/02 10:35:14;;;;;;;;;14.00;14.00;;;;;26.59;46.61;101404.97;4863374;29;45317;-88
2021/07/02 10:37:44;;;;;;;;;19.33;18.00;;;;;26.52;46.77;101406.16;4863406;29;45418;-89
2021/07/02 10:40:45;;;;;;;;;16.67;14.00;;;;;26.50;46.78;101426.91;4865826;29;45387;-88
2021/07/02 10:43:11;;;;;;;;;17.33;14.33;;;;;26.31;46.96;101417.72;4866864;29;45478;-89
2021/07/02 10:45:39;;;;;;;;;17.67;17.00;;;;;26.27;47.33;101420.56;4866067;29;46102;-90
2021/07/02 10:48:05;;;;;;;;;14.00;14.00;;;;;26.14;46.73;101418.34;4866294;29;45265;-90
2021/07/02 10:50:36;;;;;;;;;16.00;13.67;;;;;26.02;47.30;101416.97;4866649;29;45400;-90
2021/07/02 10:53:24;;;;;;;;;17.00;13.67;;;;;26.00;47.71;101425.13;4866637;29;45205;-88
2021/07/02 10:55:50;;;;;;;;;16.67;15.33;;;;;25.94;48.13;101416.38;4866088;29;45424;-89
2021/07/02 10:58:15;;;;;;;;;15.00;15.00;;;;;25.88;49.15;101420.19;4864734;29;45367;-88
2021/07/02 11:01:09;;;;;;;;;17.00;17.00;;;;;25.81;49.09;101421.31;4866321;29;45411;-87
2021/07/02 11:03:36;;;;;;;;;19.33;14.33;;;;;25.67;49.43;101395.75;4866476;29;45409;-88
2021/07/02 11:06:37;;;;;;;;;18.33;18.33;;;;;25.63;49.84;101407.59;4865662;29;46136;-87
2021/07/02 11:09:03;;;;;;;;;19.67;17.67;;;;;25.53;50.40;101393.56;4866886;29;46017;-87
2021/07/02 11:12:08;;;;;;;;;18.67;16.67;;;;;25.59;49.94;101411.31;4866013;29;45244;-89
2021/07/02 11:14:53;;;;;;;;;16.33;16.00;;;;;25.65;48.53;101395.81;4866084;29;45733;-90
2021/07/02 11:17:20;;;;;;;;;16.33;15.00;;;;;25.69;48.49;101393.94;4865067;29;45647;-88
2021/07/02 11:19:46;;;;;;;;;19.00;17.33;;;;;25.91;49.57;101390.47;4865238;29;45297;-87
2021/07/02 11:22:24;;;;;;;;;16.67;15.67;;;;;26.03;50.26;101394.50;4864360;29;45434;-87
2021/07/02 11:25:24;;;;;;;;;17.67;17.67;;;;;26.14;49.32;101388.72;4865529;29;45344;-89
2021/07/02 11:27:57;;;;;;;;;14.33;12.67;;;;;26.33;48.65;101379.91;4807388;29;45591;-87
2021/07/02 11:30:35;;;;;;;;;14.67;13.67;;;;;26.57;49.42;101377.19;4807440;29;45412;-87
2021/07/02 11:33:21;;;;;;;;;15.33;13.33;;;;;26.71;48.52;101376.66;4808693;29;45498;-87
2021/07/02 11:36:05;;;;;;;;;16.67;14.00;;;;;26.74;48.54;101372.94;4807872;29;45464;-87
2021/07/02 11:38:31;;;;;;;;;16.67;15.67;;;;;26.68;49.76;101366.88;4792238;29;48501;-87
2021/07/02 11:41:05;;;;;;;;;14.00;11.67;;;;;26.70;48.72;101372.19;4791958;29;45556;-87
2021/07/02 11:43:32;;;;;;;;;15.00;14.67;;;;;26.70;48.76;101381.16;4807748;29;45523;-86
2021/07/02 11:46:10;;;;;;;;;10.67;10.67;;;;;26.65;47.75;101388.53;4807421;29;45626;-87
2021/07/02 11:48:40;;;;;;;;;13.00;13.00;;;;;26.57;48.11;101374.50;4807798;29;45909;-86
2021/07/02 11:51:09;;;;;;;;;14.67;14.00;;;;;26.56;48.89;101378.16;4808065;29;45587;-87
2021/07/02 11:53:37;;;;;;;;;13.00;13.00;;;;;26.44;48.49;101372.28;4813709;29;45289;-86
2021/07/02 11:56:06;;;;;;;;;14.33;12.67;;;;;26.58;47.83;101374.47;4810857;29;45383;-85
2021/07/02 11:58:34;;;;;;;;;12.00;12.00;;;;;26.62;46.02;101352.75;4792957;29;47513;-86
2021/07/02 12:01:04;;;;;;;;;13.00;12.00;;;;;26.83;45.23;101375.25;4807415;29;45891;-86
2021/07/02 12:03:30;;;;;;;;;12.00;11.33;;;;;26.79;44.68;101360.16;4811841;29;45432;-89
2021/07/02 12:05:57;;;;;;;;;13.00;13.00;;;;;26.78;43.56;101372.75;4864799;29;45368;-87
2021/07/02 12:08:25;;;;;;;;;13.33;13.33;;;;;26.67;44.27;101362.41;4864618;29;46024;-86
2021/07/02 12:11:01;;;;;;;;;11.33;11.33;;;;;26.62;44.69;101356.34;4864209;29;45415;-87
2021/07/02 12:13:28;;;;;;;;;12.00;12.00;;;;;26.64;46.53;101354.44;4863278;29;45371;-86
2021/07/02 12:15:59;;;;;;;;;12.67;12.00;;;;;26.64;45.86;101359.84;4864910;29;45373;-88
2021/07/02 12:18:26;;;;;;;;;15.00;13.67;;;;;26.52;45.45;101358.53;4864214;29;46190;-86
2021/07/02 12:21:06;;;;;;;;;13.67;13.67;;;;;26.47;45.09;101355.13;4864375;29;45382;-87
2021/07/02 12:23:38;;;;;;;;;11.33;11.33;;;;;26.47;44.46;101358.72;4862885;29;45438;-89
2021/07/02 12:26:19;;;;;;;;;13.00;10.33;;;;;26.42;47.51;101363.41;4863030;29;45504;-86
2021/07/02 12:28:51;;;;;;;;;16.33;13.00;;;;;26.31;47.88;101352.16;4864105;29;45291;-87
2021/07/02 12:31:24;;;;;;;;;11.33;11.00;;;;;26.21;47.58;101339.03;4864090;29;45554;-87
2021/07/02 12:33:50;;;;;;;;;12.00;10.67;;;;;26.25;48.46;101356.81;4864343;29;45477;-88
2021/07/02 12:36:15;;;;;;;;;14.67;13.00;;;;;26.17;48.95;101348.16;4863464;29;45296;-87
2021/07/02 12:39:08;;;;;;;;;15.67;13.33;;;;;26.09;48.93;101336.81;4864566;29;45608;-87
2021/07/02 12:41:42;;;;;;;;;13.67;13.33;;;;;26.04;48.33;101325.34;4864480;29;45405;-87
2021/07/02 12:44:09;;;;;;;;;15.00;13.00;;;;;25.97;47.22;101333.66;4864710;29;45339;-87
2021/07/02 12:46:35;;;;;;;;;12.67;12.67;;;;;25.89;46.25;101346.56;4865333;29;45439;-86
2021/07/02 12:49:20;;;;;;;;;11.00;11.00;;;;;25.82;47.52;101348.59;4864787;29;45509;-87
2021/07/02 12:54:49;;;;;;;;;11.67;10.33;;;;;25.77;48.30;101354.13;4866035;29;45217;-88
2021/07/02 12:57:20;;;;;;;;;12.00;11.00;;;;;25.74;47.94;101348.84;4864924;29;45291;-87
2021/07/02 12:59:56;;;;;;;;;9.33;9.33;;;;;25.71;46.10;101338.22;4864318;29;45380;-87
2021/07/02 13:02:27;;;;;;;;;14.33;10.67;;;;;25.59;45.13;101327.88;4863436;29;45184;-87
2021/07/02 13:04:57;;;;;;;;;13.33;13.33;;;;;25.52;46.37;101337.97;4864202;29;45327;-87
2021/07/02 13:07:23;;;;;;;;;11.00;10.33;;;;;25.45;46.04;101329.25;4862916;29;45243;-86
2021/07/02 13:10:04;;;;;;;;;13.00;10.67;;;;;25.40;45.73;101336.63;4863436;29;46093;-87
2021/07/02 13:12:30;;;;;;;;;12.33;11.00;;;;;25.30;47.58;101323.47;4862518;29;45437;-87
2021/07/02 13:15:13;;;;;;;;;10.67;10.67;;;;;25.35;47.21;101330.50;4864913;29;45542;-87
2021/07/02 13:17:44;;;;;;;;;11.67;10.00;;;;;25.32;46.39;101332.38;4864689;29;45444;-87
2021/07/02 13:20:11;;;;;;;;;11.33;10.00;;;;;25.28;48.04;101325.34;4863734;29;45423;-88
2021/07/02 13:22:39;;;;;;;;;15.33;13.00;;;;;25.31;48.31;101330.63;4864791;29;45331;-87
2021/07/02 13:25:12;;;;;;;;;10.00;10.00;;;;;25.35;49.07;101335.88;4865349;29;45482;-90
2021/07/02 13:27:38;;;;;;;;;13.67;12.33;;;;;25.32;49.39;101332.38;4865316;29;45384;-88
2021/07/02 13:30:09;;;;;;;;;14.00;13.00;;;;;25.25;50.15;101325.47;4863593;29;47029;-87
2021/07/02 13:32:37;;;;;;;;;11.00;10.33;;;;;25.19;49.45;101321.16;4864285;29;45275;-88
2021/07/02 13:35:19;;;;;;;;;10.33;9.67;;;;;25.19;49.10;101323.84;4865502;29;45484;-87
2021/07/02 13:37:53;;;;;;;;;12.67;10.00;;;;;25.13;49.15;101315.13;4874245;29;45397;-88
2021/07/02 13:40:42;;;;;;;;;12.67;12.00;;;;;25.21;49.84;101331.88;4872120;29;46654;-88
2021/07/02 13:43:13;;;;;;;;;9.33;9.33;;;;;25.07;47.52;101319.78;4868146;29;45360;-86
2021/07/02 13:45:57;;;;;;;;;10.00;9.33;;;;;25.05;46.44;101324.34;4866152;29;45447;-90
2021/07/02 13:48:22;;;;;;;;;13.67;12.00;;;;;24.97;45.87;101315.66;4867843;29;45317;-88
2021/07/02 13:50:48;;;;;;;;;12.67;12.00;;;;;24.96;46.08;101319.22;4868497;29;45579;-88
2021/07/02 13:53:16;;;;;;;;;9.67;9.00;;;;;24.92;45.88;101302.31;4873275;29;45212;-88
2021/07/02 13:55:42;;;;;;;;;11.33;9.00;;;;;25.04;46.17;101311.84;4868278;29;45388;-87
2021/07/02 13:58:08;;;;;;;;;10.00;10.00;;;;;24.95;46.44;101296.88;4868972;29;45409;-87
2021/07/02 14:00:33;;;;;;;;;9.33;8.33;;;;;25.03;45.33;101301.13;4867609;29;45594;-87
2021/07/02 14:02:59;;;;;;;;;10.67;9.67;;;;;25.03;47.99;101299.31;4866189;29;45535;-88
2021/07/02 14:05:27;;;;;;;;;9.67;9.67;;;;;25.13;45.58;101309.75;4865241;29;45517;-87
2021/07/02 14:07:52;;;;;;;;;10.00;8.33;;;;;25.10;45.63;101297.28;4865340;29;45332;-87
2021/07/02 14:10:20;;;;;;;;;9.00;8.33;;;;;25.08;46.81;101291.09;4863072;29;46040;-88
2021/07/02 14:13:50;;;;;;;;;15.00;9.67;;;;;25.09;47.93;101288.34;4863253;29;45452;-87
2021/07/02 14:16:35;;;;;;;;;13.33;10.00;;;;;25.24;46.93;101306.66;4791967;29;45331;-87
2021/07/02 14:19:18;;;;;;;;;12.33;11.33;;;;;25.17;48.17;101289.88;4780691;29;45481;-86
2021/07/02 14:21:44;;;;;;;;;12.00;10.67;;;;;25.19;48.31;101296.94;4800215;29;46060;-87
2021/07/02 14:24:11;;;;;;;;;10.33;9.00;;;;;25.20;47.37;101289.75;4805672;29;45434;-87
2021/07/02 14:26:37;;;;;;;;;15.67;14.00;;;;;25.23;49.43;101289.66;4802891;29;45351;-88
2021/07/02 14:29:05;;;;;;;;;11.67;11.33;;;;;25.27;47.67;101299.38;4795617;29;45435;-89
2021/07/02 14:31:30;;;;;;;;;11.33;11.33;;;;;25.26;47.80;101304.81;4793904;29;46082;-89
2021/07/02 14:33:56;;;;;;;;;9.33;9.33;;;;;25.25;47.18;101312.00;4791395;29;45549;-88
2021/07/02 14:36:21;;;;;;;;;13.00;10.00;;;;;25.20;45.32;101311.28;4792658;29;45502;-88
2021/07/02 14:38:47;;;;;;;;;10.33;8.33;;;;;25.18;45.74;101297.00;4778637;29;45583;-90
2021/07/02 14:41:12;;;;;;;;;12.00;9.00;;;;;25.17;44.79;101306.88;4793650;29;46194;-89
2021/07/02 14:44:48;;;;;;;;;10.33;9.33;;;;;25.01;45.38;101290.41;4794561;29;44849;-88
2021/07/02 14:51:02;;;;;;;;;7.67;7.33;;;;;25.19;44.44;101309.53;4722905;30;45409;-88
2021/07/02 14:53:39;;;;;;;;;10.50;9.00;;;;;25.11;44.50;101290.97;4761314;29;45349;-89
2021/07/02 14:56:33;;;;;;;;;8.67;7.67;;;;;25.15;44.30;101291.75;4774497;29;45327;-87
2021/07/02 14:59:35;;;;;;;;;;;;;;;;;;;;;
2021/07/02 15:02:32;;;;;;;;;10.33;10.33;;;;;25.28;45.25;101293.06;4771665;29;64356;-88
2021/07/02 15:05:11;;;;;;;;;;;;;;;;;;;;;
2021/07/02 15:07:59;;;;;;;;;8.33;8.00;;;;;25.26;45.39;101278.78;4716794;30;73345;-88
2021/07/02 15:11:36;;;;;;;;;;;;;;;;;;;;;
2021/07/02 15:18:28;;;;;;;;;;;;;;;;;;;;;
2021/07/02 15:21:16;;;;;;;;;9.67;8.33;;;;;25.38;45.67;101281.97;4565495;31;72384;-88
2021/07/02 15:23:42;;;;;;;;;9.33;8.33;;;;;25.30;46.94;101266.97;4568448;30;45455;-87
2021/07/02 15:26:10;;;;;;;;;6.33;6.33;;;;;25.37;47.57;101270.31;4571065;31;45769;-87
2021/07/02 15:29:15;;;;;;;;;;;;;;;;;;;;;
2021/07/02 15:32:18;;;;;;;;;6.33;6.33;;;;;25.47;45.56;101283.47;4603989;31;72403;-87
2021/07/02 15:34:44;;;;;;;;;11.33;8.33;;;;;25.32;44.73;101273.19;4603882;31;44789;-89
2021/07/02 15:38:00;;;;;;;;;;;;;;;;;;;;;
2021/07/02 15:40:28;;;;;;;;;10.00;8.00;;;;;25.29;47.45;101262.53;4584694;30;75805;-87
2021/07/02 15:43:58;;;;;;;;;;;;;;;;;;;;;
2021/07/02 15:47:41;;;;;;;;;;;;;;;;;;;;;
2021/07/02 15:50:31;;;;;;;;;11.00;8.00;;;;;25.36;48.62;101273.09;4624193;30;45366;-88
2021/07/02 15:52:57;;;;;;;;;8.67;8.67;;;;;25.28;48.53;101265.28;4631470;30;45461;-87
2021/07/02 15:55:22;;;;;;;;;8.67;8.67;;;;;25.21;48.24;101260.13;4659985;30;45787;-88
2021/07/02 15:57:48;;;;;;;;;9.67;8.33;;;;;25.18;47.13;101257.53;4693671;30;45300;-87
2021/07/02 16:00:13;;;;;;;;;12.33;8.67;;;;;25.12;47.92;101248.81;4703050;30;45358;-87
2021/07/02 16:02:39;;;;;;;;;10.00;10.00;;;;;25.18;46.93;101251.28;4705171;30;45929;-87
2021/07/02 16:05:05;;;;;;;;;12.00;9.00;;;;;25.12;46.71;101243.44;4702834;30;45294;-87
2021/07/02 16:07:30;;;;;;;;;9.33;8.33;;;;;25.13;47.74;101251.44;4701871;30;45274;-87
2021/07/02 16:09:56;;;;;;;;;9.33;7.67;;;;;25.04;45.88;101233.84;4701247;30;45514;-88
2021/07/02 16:12:21;;;;;;;;;7.00;7.00;;;;;25.12;47.04;101260.47;4700964;30;46008;-88
2021/07/02 16:14:46;;;;;;;;;6.67;6.67;;;;;25.01;46.90;101225.88;4700072;30;45489;-87
2021/07/02 16:17:12;;;;;;;;;7.67;7.67;;;;;25.11;46.76;101236.31;4750258;29;45351;-87
2021/07/02 16:19:37;;;;;;;;;7.00;7.00;;;;;25.11;46.20;101231.78;4788977;29;45469;-87
2021/07/02 16:22:03;;;;;;;;;6.67;6.67;;;;;25.00;45.15;101216.06;4788501;29;48245;-87
2021/07/02 16:24:29;;;;;;;;;6.33;6.33;;;;;25.13;45.62;101240.69;4788625;29;45965;-89
2021/07/02 16:26:55;;;;;;;;;7.33;5.67;;;;;25.05;44.38;101224.84;4831679;29;45411;-88
2021/07/02 16:29:21;;;;;;;;;9.00;8.33;;;;;25.08;45.17;101239.97;4864515;29;45509;-87
2021/07/02 16:31:48;;;;;;;;;9.33;7.67;;;;;25.03;47.15;101226.69;4863714;29;46035;-87
2021/07/02 16:34:14;;;;;;;;;8.00;8.00;;;;;24.98;46.57;101209.88;4864241;29;45168;-87
2021/07/02 16:36:39;;;;;;;;;10.00;10.00;;;;;25.03;47.26;101210.56;4861887;29;45260;-87
2021/07/02 16:39:05;;;;;;;;;10.67;8.00;;;;;25.04;47.82;101204.25;4863223;29;45301;-88
2021/07/02 16:41:30;;;;;;;;;9.67;8.00;;;;;25.05;48.20;101206.00;4863881;29;46290;-88
2021/07/02 16:43:55;;;;;;;;;10.67;8.00;;;;;25.15;47.98;101221.81;4864545;29;45300;-88
2021/07/02 16:46:21;;;;;;;;;6.67;6.67;;;;;25.09;48.68;101207.66;4864197;29;45463;-89
2021/07/02 16:48:48;;;;;;;;;8.00;8.00;;;;;25.06;48.26;101207.78;4864522;29;45438;-87
2021/07/02 16:51:13;;;;;;;;;8.00;7.67;;;;;25.14;47.87;101211.97;4864037;29;46095;-86
2021/07/02 16:53:39;;;;;;;;;10.00;8.33;;;;;25.11;47.88;101191.44;4863754;29;45378;-87
2021/07/02 16:56:04;;;;;;;;;9.67;9.67;;;;;25.07;48.38;101189.81;4864052;29;45442;-88
2021/07/02 16:58:31;;;;;;;;;10.00;10.00;;;;;25.03;47.70;101180.97;4864275;29;45332;-87
2021/07/02 17:00:56;;;;;;;;;11.67;11.67;;;;;25.00;49.51;101183.81;4862622;29;47383;-88